createdAt,value
2023-12-30T00:02:31.993Z,2.45
2023-12-30T00:07:33.657Z,2.30
2023-12-30T00:12:35.310Z,2.60
2023-12-30T00:17:37.197Z,2.33
2023-12-30T00:22:38.915Z,2.10
2023-12-30T00:27:40.636Z,2.20
2023-12-30T00:32:42.325Z,2.30
2023-12-30T00:37:44.109Z,2.00
2023-12-30T00:42:46.165Z,2.42
2023-12-30T00:47:48.232Z,2.67
2023-12-30T00:52:49.892Z,2.20
2023-12-30T00:57:51.638Z,2.13
2023-12-30T01:02:55.307Z,2.10
2023-12-30T01:07:56.951Z,2.60
2023-12-30T01:12:59.123Z,2.05
2023-12-30T01:18:00.889Z,2.17
2023-12-30T01:23:03.020Z,2.33
2023-12-30T01:28:06.121Z,2.20
2023-12-30T01:33:08.161Z,2.20
2023-12-30T01:38:10.337Z,2.40
2023-12-30T01:43:28.217Z,2.00
2023-12-30T01:48:31.032Z,2.70
2023-12-30T01:53:36.621Z,2.22
2023-12-30T01:58:38.361Z,1.73
2023-12-30T02:03:40.607Z,2.35
2023-12-30T02:08:42.348Z,2.30
2023-12-30T02:13:44.685Z,2.08
2023-12-30T02:18:46.341Z,2.25
2023-12-30T02:23:54.840Z,2.13
2023-12-30T02:28:56.487Z,2.20
2023-12-30T02:33:58.163Z,2.13
2023-12-30T02:38:59.785Z,2.10
2023-12-30T02:44:03.388Z,2.03
2023-12-30T02:49:06.351Z,1.88
2023-12-30T02:54:08.268Z,2.08
2023-12-30T02:59:10.276Z,2.10
2023-12-30T03:04:12.033Z,1.83
2023-12-30T03:09:13.773Z,2.20
2023-12-30T03:14:15.745Z,1.88
2023-12-30T03:19:17.392Z,1.67
2023-12-30T03:24:19.034Z,2.00
2023-12-30T03:29:21.704Z,2.03
2023-12-30T03:34:24.783Z,2.47
2023-12-30T03:39:26.478Z,2.15
2023-12-30T03:44:28.084Z,2.25
2023-12-30T03:49:29.897Z,1.80
2023-12-30T03:54:31.606Z,1.80
2023-12-30T03:59:33.608Z,2.25
2023-12-30T04:04:35.425Z,1.85
2023-12-30T04:09:37.056Z,2.10
2023-12-30T04:14:38.668Z,2.28
2023-12-30T04:19:40.737Z,1.90
2023-12-30T04:24:42.417Z,2.00
2023-12-30T04:29:44.043Z,2.03
2023-12-30T04:34:46.225Z,2.20
2023-12-30T04:39:47.853Z,2.10
2023-12-30T04:44:49.493Z,1.88
2023-12-30T04:49:51.090Z,1.23
2023-12-30T04:54:52.757Z,1.58
2023-12-30T04:59:54.481Z,1.67
2023-12-30T05:04:56.071Z,1.70
2023-12-30T05:09:57.702Z,1.52
2023-12-30T05:14:59.357Z,1.23
2023-12-30T05:20:01.212Z,0.95
2023-12-30T05:25:03.026Z,0.80
2023-12-30T05:30:07.113Z,0.68
2023-12-30T05:35:09.087Z,0.70
2023-12-30T05:40:11.734Z,0.77
2023-12-30T05:45:13.400Z,0.95
2023-12-30T05:50:15.039Z,1.00
2023-12-30T05:55:16.866Z,0.90
2023-12-30T06:00:20.540Z,2.28
2023-12-30T06:05:22.268Z,3.35
2023-12-30T06:10:24.740Z,1.83
2023-12-30T06:15:26.376Z,1.50
2023-12-30T06:20:27.974Z,1.30
2023-12-30T06:25:30.148Z,1.50
2023-12-30T06:30:31.857Z,1.40
2023-12-30T06:35:35.278Z,1.50
2023-12-30T06:40:37.036Z,1.60
2023-12-30T06:45:38.953Z,1.40
2023-12-30T06:50:40.547Z,1.90
2023-12-30T06:55:47.885Z,1.60
2023-12-30T07:00:50.301Z,1.40
2023-12-30T07:05:52.006Z,1.08
2023-12-30T07:10:53.722Z,1.23
2023-12-30T07:15:55.402Z,0.60
2023-12-30T07:20:57.034Z,0.40
2023-12-30T07:25:58.841Z,0.52
2023-12-30T07:31:00.573Z,0.50
2023-12-30T07:36:05.295Z,0.40
2023-12-30T07:41:07.075Z,0.98
2023-12-30T07:46:08.705Z,0.60
2023-12-30T07:51:10.727Z,0.60
2023-12-30T07:56:12.359Z,0.77
2023-12-30T08:01:14.042Z,1.00
2023-12-30T08:06:15.702Z,0.60
2023-12-30T08:11:17.359Z,0.70
2023-12-30T08:16:19.856Z,0.70
2023-12-30T08:21:21.631Z,0.70
2023-12-30T08:26:24.073Z,0.52
2023-12-30T08:31:25.721Z,0.80
2023-12-30T08:36:29.555Z,0.70
2023-12-30T08:41:31.243Z,0.70
2023-12-30T08:46:32.967Z,0.90
2023-12-30T08:51:34.733Z,0.75
2023-12-30T08:56:36.387Z,0.73
2023-12-30T09:01:38.605Z,0.50
2023-12-30T09:06:40.266Z,1.00
2023-12-30T09:11:44.117Z,1.15
2023-12-30T09:16:45.998Z,0.68
2023-12-30T09:21:47.645Z,0.80
2023-12-30T09:26:49.321Z,0.60
2023-12-30T09:31:50.978Z,0.80
2023-12-30T09:36:52.907Z,0.63
2023-12-30T09:41:54.608Z,0.65
2023-12-30T09:46:57.167Z,0.63
2023-12-30T09:52:01.545Z,1.20
2023-12-30T09:57:04.138Z,0.80
2023-12-30T10:02:08.533Z,1.10
2023-12-30T10:07:11.850Z,0.80
2023-12-30T10:12:13.550Z,1.55
2023-12-30T10:17:15.729Z,1.20
2023-12-30T10:22:17.859Z,1.17
2023-12-30T10:27:19.651Z,1.23
2023-12-30T10:32:22.736Z,1.02
2023-12-30T10:37:25.137Z,1.10
2023-12-30T10:42:26.835Z,0.88
2023-12-30T10:47:29.445Z,0.73
2023-12-30T10:52:33.165Z,1.52
2023-12-30T10:57:37.433Z,1.25
2023-12-30T11:02:40.140Z,1.02
2023-12-30T11:07:42.186Z,1.40
2023-12-30T11:12:43.836Z,1.40
2023-12-30T11:17:45.516Z,1.45
2023-12-30T11:22:47.360Z,1.63
2023-12-30T11:27:53.293Z,1.30
2023-12-30T11:32:59.225Z,1.45
2023-12-30T11:38:06.098Z,1.52
2023-12-30T11:43:14.447Z,1.77
2023-12-30T11:48:16.834Z,1.90
2023-12-30T11:53:18.729Z,2.60
2023-12-30T11:58:20.449Z,1.88
2023-12-30T12:03:22.212Z,1.80
2023-12-30T12:08:24.022Z,1.67
2023-12-30T12:13:27.080Z,1.48
2023-12-30T12:18:28.941Z,1.77
2023-12-30T12:23:32.299Z,1.60
2023-12-30T12:28:34.943Z,1.60
2023-12-30T12:33:37.013Z,1.50
2023-12-30T12:38:38.863Z,1.60
2023-12-30T12:43:40.514Z,1.70
2023-12-30T12:48:42.468Z,1.80
2023-12-30T12:53:44.199Z,2.30
2023-12-30T12:58:45.918Z,2.90
2023-12-30T13:03:47.747Z,2.60
2023-12-30T13:08:53.411Z,2.50
2023-12-30T13:13:56.220Z,2.60
2023-12-30T13:18:57.969Z,2.55
2023-12-30T13:23:59.639Z,2.50
2023-12-30T13:29:01.257Z,2.53
2023-12-30T13:34:03.667Z,2.90
2023-12-30T13:39:08.288Z,2.38
2023-12-30T13:44:16.630Z,2.55
2023-12-30T13:49:18.298Z,1.90
2023-12-30T13:54:24.044Z,2.55
2023-12-30T13:59:26.619Z,2.30
2023-12-30T14:04:28.552Z,2.28
2023-12-30T14:09:47.074Z,1.75
2023-12-30T14:14:54.680Z,1.60
2023-12-30T14:19:56.407Z,1.92
2023-12-30T14:24:58.077Z,1.77
2023-12-30T14:30:02.063Z,2.10
2023-12-30T14:35:04.899Z,2.13
2023-12-30T14:40:08.018Z,1.85
2023-12-30T14:45:11.372Z,4.00
2023-12-30T14:50:13.165Z,4.25
2023-12-30T14:55:15.186Z,2.92
2023-12-30T15:00:17.495Z,2.88
2023-12-30T15:05:22.987Z,3.40
2023-12-30T15:10:25.834Z,3.67
2023-12-30T15:15:27.524Z,3.17
2023-12-30T15:20:29.189Z,2.75
2023-12-30T15:25:33.025Z,3.25
2023-12-30T15:30:34.732Z,3.13
2023-12-30T15:35:36.402Z,4.38
2023-12-30T15:40:41.800Z,4.65
2023-12-30T15:45:43.539Z,3.75
2023-12-30T15:50:46.270Z,4.25
2023-12-30T15:55:49.355Z,3.95
2023-12-30T16:00:51.215Z,10.93
2023-12-30T16:05:53.022Z,18.65
2023-12-30T16:10:54.686Z,19.48
2023-12-30T16:15:58.225Z,14.32
2023-12-30T16:20:59.902Z,9.95
2023-12-30T16:26:01.684Z,10.93
2023-12-30T16:31:04.324Z,13.98
2023-12-30T16:36:06.323Z,13.65
2023-12-30T16:41:07.930Z,10.15
2023-12-30T16:46:09.764Z,8.43
2023-12-30T16:51:12.592Z,7.07
2023-12-30T16:56:16.788Z,6.93
2023-12-30T17:01:18.506Z,7.00
2023-12-30T17:06:20.161Z,7.22
2023-12-30T17:11:21.772Z,9.90
2023-12-30T17:16:23.494Z,9.00
2023-12-30T17:21:25.159Z,8.13
2023-12-30T17:26:26.872Z,7.45
2023-12-30T17:31:28.797Z,6.63
2023-12-30T17:36:30.641Z,7.22
2023-12-30T17:41:32.358Z,6.80
2023-12-30T17:46:35.484Z,6.90
2023-12-30T17:51:37.182Z,5.95
2023-12-30T17:56:38.839Z,5.22
2023-12-30T18:01:41.148Z,5.55
2023-12-30T18:06:42.802Z,6.38
2023-12-30T18:11:44.910Z,5.90
2023-12-30T18:16:46.649Z,5.88
2023-12-30T18:21:48.356Z,6.57
2023-12-30T18:26:49.979Z,7.10
2023-12-30T18:31:52.521Z,5.75
2023-12-30T18:36:54.179Z,5.63
2023-12-30T18:41:55.800Z,5.20
2023-12-30T18:46:57.378Z,5.93
2023-12-30T18:51:58.988Z,6.80
2023-12-30T18:57:00.647Z,6.80
2023-12-30T19:02:02.395Z,6.13
2023-12-30T19:07:04.301Z,7.10
2023-12-30T19:12:06.965Z,7.03
2023-12-30T19:17:10.063Z,9.05
2023-12-30T19:22:12.799Z,11.80
2023-12-30T19:27:14.523Z,10.77
2023-12-30T19:32:16.162Z,11.05
2023-12-30T19:37:17.777Z,9.95
2023-12-30T19:42:19.446Z,8.93
2023-12-30T19:47:21.075Z,8.23
2023-12-30T19:52:22.753Z,6.70
2023-12-30T19:57:24.420Z,5.88
2023-12-30T20:02:26.069Z,5.63
2023-12-30T20:07:27.804Z,5.18
2023-12-30T20:12:29.929Z,5.22
2023-12-30T20:17:31.774Z,5.10
2023-12-30T20:22:34.264Z,6.30
2023-12-30T20:27:36.066Z,5.90
2023-12-30T20:32:37.813Z,5.70
2023-12-30T20:37:39.562Z,5.57
2023-12-30T20:42:41.286Z,5.20
2023-12-30T20:47:42.963Z,5.30
2023-12-30T20:52:44.702Z,5.13
2023-12-30T20:57:46.382Z,5.72
2023-12-30T21:02:48.220Z,5.50
2023-12-30T21:07:49.999Z,6.40
2023-12-30T21:12:52.881Z,6.00
2023-12-30T21:17:55.987Z,5.47
2023-12-30T21:22:57.768Z,5.38
2023-12-30T21:27:59.442Z,5.18
2023-12-30T21:38:02.987Z,5.70
2023-12-30T21:43:05.312Z,5.75
2023-12-30T21:48:08.837Z,6.55
2023-12-30T21:53:13.533Z,6.00
2023-12-30T21:58:15.205Z,6.47
2023-12-30T22:03:16.960Z,6.43
2023-12-30T22:08:18.616Z,6.15
2023-12-30T22:13:20.473Z,6.30
2023-12-30T22:18:23.294Z,5.65
2023-12-30T22:23:24.974Z,7.00
2023-12-30T22:28:26.626Z,6.78
2023-12-30T22:33:29.754Z,9.20
2023-12-30T22:38:31.511Z,8.05
2023-12-30T22:43:34.595Z,10.43
2023-12-30T22:48:36.407Z,10.45
2023-12-30T22:53:40.573Z,10.25
2023-12-30T22:58:42.232Z,10.73
2023-12-30T23:03:44.048Z,11.90
2023-12-30T23:08:45.692Z,10.63
2023-12-30T23:13:47.372Z,10.77
2023-12-30T23:18:49.159Z,10.68
2023-12-30T23:23:50.837Z,10.90
2023-12-30T23:28:53.019Z,9.82
2023-12-30T23:33:54.686Z,8.73
2023-12-30T23:38:56.353Z,8.25
2023-12-30T23:43:58.009Z,8.60
2023-12-30T23:48:59.702Z,7.65
2023-12-30T23:54:01.629Z,8.95
2023-12-30T23:59:03.854Z,8.55
